sensor_id;sensor_type;location;lat;lon;timestamp;P1;durP1;ratioP1;P2;durP2;ratioP2
8247;SDS011;4164;49.844;8.830;2022-10-13T00:00:42;18.50;;;11.63;;
8247;SDS011;4164;49.844;8.830;2022-10-13T00:03:09;23.33;;;12.60;;
8247;SDS011;4164;49.844;8.830;2022-10-13T00:05:39;19.73;;;12.50;;
8247;SDS011;4164;49.844;8.830;2022-10-13T00:08:11;21.10;;;12.27;;
8247;SDS011;4164;49.844;8.830;2022-10-13T00:10:38;18.47;;;12.90;;
8247;SDS011;4164;49.844;8.830;2022-10-13T00:13:05;22.53;;;12.93;;
8247;SDS011;4164;49.844;8.830;2022-10-13T00:15:31;24.50;;;14.40;;
8247;SDS011;4164;49.844;8.830;2022-10-13T00:17:57;23.00;;;13.50;;
8247;SDS011;4164;49.844;8.830;2022-10-13T00:20:23;17.87;;;12.17;;
8247;SDS011;4164;49.844;8.830;2022-10-13T00:22:48;22.43;;;13.17;;
8247;SDS011;4164;49.844;8.830;2022-10-13T00:25:14;19.20;;;12.57;;
8247;SDS011;4164;49.844;8.830;2022-10-13T00:27:40;23.23;;;13.47;;
8247;SDS011;4164;49.844;8.830;2022-10-13T00:30:05;20.90;;;12.13;;
8247;SDS011;4164;49.844;8.830;2022-10-13T00:32:31;27.63;;;12.80;;
8247;SDS011;4164;49.844;8.830;2022-10-13T00:34:57;21.07;;;12.60;;
8247;SDS011;4164;49.844;8.830;2022-10-13T00:37:23;45.73;;;15.53;;
8247;SDS011;4164;49.844;8.830;2022-10-13T00:39:49;25.87;;;13.20;;
8247;SDS011;4164;49.844;8.830;2022-10-13T00:42:14;17.40;;;12.20;;
8247;SDS011;4164;49.844;8.830;2022-10-13T00:45:00;16.30;;;11.83;;
8247;SDS011;4164;49.844;8.830;2022-10-13T00:47:38;21.63;;;11.90;;
8247;SDS011;4164;49.844;8.830;2022-10-13T00:50:06;23.70;;;12.50;;
8247;SDS011;4164;49.844;8.830;2022-10-13T00:52:35;21.73;;;12.80;;
8247;SDS011;4164;49.844;8.830;2022-10-13T00:55:03;19.40;;;12.20;;
8247;SDS011;4164;49.844;8.830;2022-10-13T00:57:30;24.20;;;12.63;;
8247;SDS011;4164;49.844;8.830;2022-10-13T00:59:57;20.07;;;13.07;;
8247;SDS011;4164;49.844;8.830;2022-10-13T01:02:26;21.00;;;12.23;;
8247;SDS011;4164;49.844;8.830;2022-10-13T01:04:55;18.37;;;12.00;;
8247;SDS011;4164;49.844;8.830;2022-10-13T01:07:21;19.40;;;12.53;;
8247;SDS011;4164;49.844;8.830;2022-10-13T01:09:47;21.47;;;13.23;;
8247;SDS011;4164;49.844;8.830;2022-10-13T01:12:17;24.07;;;12.53;;
8247;SDS011;4164;49.844;8.830;2022-10-13T01:15:09;19.17;;;13.53;;
8247;SDS011;4164;49.844;8.830;2022-10-13T01:35:05;17.77;;;10.67;;
8247;SDS011;4164;49.844;8.830;2022-10-13T01:42:47;19.23;;;11.07;;
8247;SDS011;4164;49.844;8.830;2022-10-13T01:45:20;19.50;;;12.13;;
8247;SDS011;4164;49.844;8.830;2022-10-13T01:47:48;18.97;;;12.63;;
8247;SDS011;4164;49.844;8.830;2022-10-13T01:50:15;22.17;;;12.50;;
8247;SDS011;4164;49.844;8.830;2022-10-13T01:52:43;17.40;;;10.80;;
8247;SDS011;4164;49.844;8.830;2022-10-13T01:55:10;18.97;;;11.03;;
8247;SDS011;4164;49.844;8.830;2022-10-13T01:57:40;19.47;;;11.63;;
8247;SDS011;4164;49.844;8.830;2022-10-13T02:00:08;18.07;;;11.33;;
8247;SDS011;4164;49.844;8.830;2022-10-13T02:10:39;17.40;;;11.27;;
8247;SDS011;4164;49.844;8.830;2022-10-13T02:13:20;17.23;;;10.80;;
8247;SDS011;4164;49.844;8.830;2022-10-13T02:15:50;24.50;;;11.97;;
8247;SDS011;4164;49.844;8.830;2022-10-13T02:18:19;17.53;;;12.13;;
8247;SDS011;4164;49.844;8.830;2022-10-13T02:20:49;17.00;;;11.50;;
8247;SDS011;4164;49.844;8.830;2022-10-13T02:23:16;22.10;;;13.67;;
8247;SDS011;4164;49.844;8.830;2022-10-13T02:25:42;22.83;;;14.90;;
8247;SDS011;4164;49.844;8.830;2022-10-13T02:28:09;27.90;;;15.80;;
8247;SDS011;4164;49.844;8.830;2022-10-13T02:30:37;24.47;;;15.13;;
8247;SDS011;4164;49.844;8.830;2022-10-13T02:33:04;25.47;;;15.20;;
8247;SDS011;4164;49.844;8.830;2022-10-13T02:35:30;30.43;;;16.37;;
8247;SDS011;4164;49.844;8.830;2022-10-13T02:37:57;26.07;;;15.23;;
8247;SDS011;4164;49.844;8.830;2022-10-13T02:40:23;26.17;;;16.00;;
8247;SDS011;4164;49.844;8.830;2022-10-13T02:42:48;30.80;;;17.47;;
8247;SDS011;4164;49.844;8.830;2022-10-13T02:45:14;32.80;;;18.07;;
8247;SDS011;4164;49.844;8.830;2022-10-13T02:47:40;35.57;;;19.03;;
8247;SDS011;4164;49.844;8.830;2022-10-13T02:50:05;29.30;;;16.27;;
8247;SDS011;4164;49.844;8.830;2022-10-13T02:52:31;30.40;;;17.97;;
8247;SDS011;4164;49.844;8.830;2022-10-13T02:54:57;27.40;;;16.67;;
8247;SDS011;4164;49.844;8.830;2022-10-13T02:57:22;26.37;;;15.97;;
8247;SDS011;4164;49.844;8.830;2022-10-13T02:59:48;27.40;;;16.97;;
8247;SDS011;4164;49.844;8.830;2022-10-13T03:02:14;26.70;;;15.77;;
8247;SDS011;4164;49.844;8.830;2022-10-13T03:04:40;25.17;;;14.93;;
8247;SDS011;4164;49.844;8.830;2022-10-13T03:07:06;26.80;;;17.03;;
8247;SDS011;4164;49.844;8.830;2022-10-13T03:09:31;32.40;;;17.07;;
8247;SDS011;4164;49.844;8.830;2022-10-13T03:11:57;25.93;;;16.33;;
8247;SDS011;4164;49.844;8.830;2022-10-13T03:14:23;25.80;;;15.60;;
8247;SDS011;4164;49.844;8.830;2022-10-13T03:16:48;29.97;;;16.60;;
8247;SDS011;4164;49.844;8.830;2022-10-13T03:19:14;28.03;;;16.60;;
8247;SDS011;4164;49.844;8.830;2022-10-13T03:21:39;28.50;;;16.27;;
8247;SDS011;4164;49.844;8.830;2022-10-13T03:24:05;20.80;;;14.80;;
8247;SDS011;4164;49.844;8.830;2022-10-13T03:26:31;25.63;;;15.83;;
8247;SDS011;4164;49.844;8.830;2022-10-13T03:28:57;25.57;;;15.67;;
8247;SDS011;4164;49.844;8.830;2022-10-13T03:31:23;25.90;;;15.60;;
8247;SDS011;4164;49.844;8.830;2022-10-13T03:33:48;27.70;;;16.37;;
8247;SDS011;4164;49.844;8.830;2022-10-13T03:36:14;29.17;;;16.53;;
8247;SDS011;4164;49.844;8.830;2022-10-13T03:38:40;28.57;;;16.80;;
8247;SDS011;4164;49.844;8.830;2022-10-13T03:41:06;29.80;;;15.97;;
8247;SDS011;4164;49.844;8.830;2022-10-13T03:43:36;30.30;;;15.93;;
8247;SDS011;4164;49.844;8.830;2022-10-13T03:46:02;33.93;;;15.33;;
8247;SDS011;4164;49.844;8.830;2022-10-13T03:48:29;30.13;;;16.80;;
8247;SDS011;4164;49.844;8.830;2022-10-13T03:50:55;30.33;;;16.43;;
8247;SDS011;4164;49.844;8.830;2022-10-13T03:53:22;29.07;;;16.07;;
8247;SDS011;4164;49.844;8.830;2022-10-13T03:55:48;32.87;;;17.67;;
8247;SDS011;4164;49.844;8.830;2022-10-13T03:58:18;29.80;;;16.20;;
8247;SDS011;4164;49.844;8.830;2022-10-13T04:00:45;26.97;;;16.03;;
8247;SDS011;4164;49.844;8.830;2022-10-13T04:03:11;26.90;;;16.23;;
8247;SDS011;4164;49.844;8.830;2022-10-13T04:05:37;24.43;;;15.97;;
8247;SDS011;4164;49.844;8.830;2022-10-13T04:08:04;26.20;;;16.27;;
8247;SDS011;4164;49.844;8.830;2022-10-13T04:10:29;26.93;;;16.17;;
8247;SDS011;4164;49.844;8.830;2022-10-13T04:12:55;27.37;;;15.73;;
8247;SDS011;4164;49.844;8.830;2022-10-13T04:15:21;30.53;;;16.67;;
8247;SDS011;4164;49.844;8.830;2022-10-13T04:17:46;25.90;;;16.90;;
8247;SDS011;4164;49.844;8.830;2022-10-13T04:20:12;30.17;;;16.83;;
8247;SDS011;4164;49.844;8.830;2022-10-13T04:22:38;30.13;;;16.90;;
8247;SDS011;4164;49.844;8.830;2022-10-13T04:25:03;29.67;;;16.07;;
8247;SDS011;4164;49.844;8.830;2022-10-13T04:27:30;33.13;;;17.77;;
8247;SDS011;4164;49.844;8.830;2022-10-13T04:29:56;28.83;;;16.10;;
8247;SDS011;4164;49.844;8.830;2022-10-13T04:32:22;30.20;;;17.03;;
8247;SDS011;4164;49.844;8.830;2022-10-13T04:34:48;28.63;;;17.10;;
8247;SDS011;4164;49.844;8.830;2022-10-13T04:37:14;29.30;;;16.57;;
8247;SDS011;4164;49.844;8.830;2022-10-13T04:39:40;26.73;;;16.33;;
8247;SDS011;4164;49.844;8.830;2022-10-13T04:42:05;27.87;;;17.20;;
8247;SDS011;4164;49.844;8.830;2022-10-13T04:44:31;32.33;;;17.77;;
8247;SDS011;4164;49.844;8.830;2022-10-13T04:46:59;33.50;;;17.80;;
8247;SDS011;4164;49.844;8.830;2022-10-13T04:49:25;26.50;;;15.67;;
8247;SDS011;4164;49.844;8.830;2022-10-13T04:51:52;27.43;;;16.80;;
8247;SDS011;4164;49.844;8.830;2022-10-13T04:54:17;28.60;;;15.73;;
8247;SDS011;4164;49.844;8.830;2022-10-13T04:56:43;25.17;;;14.70;;
8247;SDS011;4164;49.844;8.830;2022-10-13T04:59:10;25.13;;;15.83;;
8247;SDS011;4164;49.844;8.830;2022-10-13T05:01:35;21.77;;;13.87;;
8247;SDS011;4164;49.844;8.830;2022-10-13T05:04:02;25.07;;;15.23;;
8247;SDS011;4164;49.844;8.830;2022-10-13T05:06:30;28.20;;;14.83;;
8247;SDS011;4164;49.844;8.830;2022-10-13T05:08:57;23.37;;;14.73;;
8247;SDS011;4164;49.844;8.830;2022-10-13T05:11:24;26.63;;;15.63;;
8247;SDS011;4164;49.844;8.830;2022-10-13T05:13:53;24.10;;;14.60;;
8247;SDS011;4164;49.844;8.830;2022-10-13T05:16:20;23.87;;;15.43;;
8247;SDS011;4164;49.844;8.830;2022-10-13T05:18:47;25.00;;;15.23;;
8247;SDS011;4164;49.844;8.830;2022-10-13T05:21:21;24.57;;;15.93;;
8247;SDS011;4164;49.844;8.830;2022-10-13T05:23:48;27.50;;;16.40;;
8247;SDS011;4164;49.844;8.830;2022-10-13T05:26:17;24.43;;;16.00;;
8247;SDS011;4164;49.844;8.830;2022-10-13T05:28:43;23.13;;;14.53;;
8247;SDS011;4164;49.844;8.830;2022-10-13T05:31:14;23.37;;;15.00;;
8247;SDS011;4164;49.844;8.830;2022-10-13T05:33:42;21.07;;;14.60;;
8247;SDS011;4164;49.844;8.830;2022-10-13T05:36:12;23.40;;;15.27;;
8247;SDS011;4164;49.844;8.830;2022-10-13T05:38:40;25.03;;;16.23;;
8247;SDS011;4164;49.844;8.830;2022-10-13T05:41:07;29.40;;;16.67;;
8247;SDS011;4164;49.844;8.830;2022-10-13T05:43:34;29.70;;;16.57;;
8247;SDS011;4164;49.844;8.830;2022-10-13T05:46:01;29.60;;;17.53;;
8247;SDS011;4164;49.844;8.830;2022-10-13T05:48:28;32.20;;;18.23;;
8247;SDS011;4164;49.844;8.830;2022-10-13T05:50:54;33.87;;;17.83;;
8247;SDS011;4164;49.844;8.830;2022-10-13T05:53:22;34.20;;;19.43;;
8247;SDS011;4164;49.844;8.830;2022-10-13T05:55:49;39.77;;;19.60;;
8247;SDS011;4164;49.844;8.830;2022-10-13T05:58:16;32.10;;;18.37;;
8247;SDS011;4164;49.844;8.830;2022-10-13T06:00:42;31.83;;;18.07;;
8247;SDS011;4164;49.844;8.830;2022-10-13T06:03:10;30.57;;;18.90;;
8247;SDS011;4164;49.844;8.830;2022-10-13T06:05:38;29.93;;;18.10;;
8247;SDS011;4164;49.844;8.830;2022-10-13T06:08:07;28.63;;;17.87;;
8247;SDS011;4164;49.844;8.830;2022-10-13T06:10:33;29.23;;;17.83;;
8247;SDS011;4164;49.844;8.830;2022-10-13T06:13:00;30.17;;;18.13;;
8247;SDS011;4164;49.844;8.830;2022-10-13T06:15:26;33.37;;;19.47;;
8247;SDS011;4164;49.844;8.830;2022-10-13T06:17:51;32.37;;;19.23;;
8247;SDS011;4164;49.844;8.830;2022-10-13T06:20:17;26.23;;;18.13;;
8247;SDS011;4164;49.844;8.830;2022-10-13T06:22:43;28.60;;;17.10;;
8247;SDS011;4164;49.844;8.830;2022-10-13T06:25:08;29.47;;;17.03;;
8247;SDS011;4164;49.844;8.830;2022-10-13T06:27:34;25.37;;;16.20;;
8247;SDS011;4164;49.844;8.830;2022-10-13T06:29:59;26.03;;;15.77;;
8247;SDS011;4164;49.844;8.830;2022-10-13T06:32:25;31.53;;;16.20;;
8247;SDS011;4164;49.844;8.830;2022-10-13T06:34:51;26.87;;;16.17;;
8247;SDS011;4164;49.844;8.830;2022-10-13T06:37:16;23.47;;;15.23;;
8247;SDS011;4164;49.844;8.830;2022-10-13T06:39:42;27.60;;;17.07;;
8247;SDS011;4164;49.844;8.830;2022-10-13T06:42:07;24.93;;;15.07;;
8247;SDS011;4164;49.844;8.830;2022-10-13T06:44:33;25.60;;;16.43;;
8247;SDS011;4164;49.844;8.830;2022-10-13T06:46:58;25.60;;;15.57;;
8247;SDS011;4164;49.844;8.830;2022-10-13T06:49:24;25.73;;;16.40;;
8247;SDS011;4164;49.844;8.830;2022-10-13T06:51:53;25.00;;;16.53;;
8247;SDS011;4164;49.844;8.830;2022-10-13T06:54:18;27.57;;;16.03;;
8247;SDS011;4164;49.844;8.830;2022-10-13T06:56:44;30.13;;;18.33;;
8247;SDS011;4164;49.844;8.830;2022-10-13T06:59:09;43.77;;;18.13;;
8247;SDS011;4164;49.844;8.830;2022-10-13T07:01:35;30.17;;;17.90;;
8247;SDS011;4164;49.844;8.830;2022-10-13T07:04:01;29.83;;;19.03;;
8247;SDS011;4164;49.844;8.830;2022-10-13T07:06:27;33.63;;;17.73;;
8247;SDS011;4164;49.844;8.830;2022-10-13T07:08:53;26.13;;;17.33;;
8247;SDS011;4164;49.844;8.830;2022-10-13T07:11:18;35.87;;;18.77;;
8247;SDS011;4164;49.844;8.830;2022-10-13T07:13:44;28.37;;;18.27;;
8247;SDS011;4164;49.844;8.830;2022-10-13T07:16:10;30.73;;;17.63;;
8247;SDS011;4164;49.844;8.830;2022-10-13T07:18:36;28.27;;;18.07;;
8247;SDS011;4164;49.844;8.830;2022-10-13T07:21:01;29.50;;;17.53;;
8247;SDS011;4164;49.844;8.830;2022-10-13T07:23:28;30.83;;;17.17;;
8247;SDS011;4164;49.844;8.830;2022-10-13T07:25:54;30.47;;;17.63;;
8247;SDS011;4164;49.844;8.830;2022-10-13T07:28:23;28.73;;;17.80;;
8247;SDS011;4164;49.844;8.830;2022-10-13T07:30:49;27.90;;;16.53;;
8247;SDS011;4164;49.844;8.830;2022-10-13T07:33:15;28.27;;;17.47;;
8247;SDS011;4164;49.844;8.830;2022-10-13T07:35:41;32.17;;;16.97;;
8247;SDS011;4164;49.844;8.830;2022-10-13T07:38:07;31.93;;;18.23;;
8247;SDS011;4164;49.844;8.830;2022-10-13T07:40:33;30.83;;;17.90;;
8247;SDS011;4164;49.844;8.830;2022-10-13T07:43:02;32.40;;;16.57;;
8247;SDS011;4164;49.844;8.830;2022-10-13T07:45:27;28.97;;;17.57;;
8247;SDS011;4164;49.844;8.830;2022-10-13T07:47:53;29.50;;;15.63;;
8247;SDS011;4164;49.844;8.830;2022-10-13T07:50:18;30.20;;;16.03;;
8247;SDS011;4164;49.844;8.830;2022-10-13T07:52:44;32.43;;;17.17;;
8247;SDS011;4164;49.844;8.830;2022-10-13T07:55:10;27.97;;;15.03;;
8247;SDS011;4164;49.844;8.830;2022-10-13T07:57:35;25.10;;;14.53;;
8247;SDS011;4164;49.844;8.830;2022-10-13T08:00:02;25.07;;;14.17;;
8247;SDS011;4164;49.844;8.830;2022-10-13T08:02:30;25.77;;;15.20;;
8247;SDS011;4164;49.844;8.830;2022-10-13T08:04:55;25.63;;;15.20;;
8247;SDS011;4164;49.844;8.830;2022-10-13T08:07:21;26.50;;;16.33;;
8247;SDS011;4164;49.844;8.830;2022-10-13T08:09:46;28.17;;;16.67;;
8247;SDS011;4164;49.844;8.830;2022-10-13T08:12:12;29.80;;;16.90;;
8247;SDS011;4164;49.844;8.830;2022-10-13T08:14:38;25.20;;;14.53;;
8247;SDS011;4164;49.844;8.830;2022-10-13T08:17:03;23.87;;;15.27;;
8247;SDS011;4164;49.844;8.830;2022-10-13T08:19:29;34.73;;;15.00;;
8247;SDS011;4164;49.844;8.830;2022-10-13T08:21:55;26.10;;;14.50;;
8247;SDS011;4164;49.844;8.830;2022-10-13T08:24:20;30.30;;;14.47;;
8247;SDS011;4164;49.844;8.830;2022-10-13T08:26:49;27.03;;;14.17;;
8247;SDS011;4164;49.844;8.830;2022-10-13T08:29:15;23.47;;;14.10;;
8247;SDS011;4164;49.844;8.830;2022-10-13T08:31:42;32.20;;;14.43;;
8247;SDS011;4164;49.844;8.830;2022-10-13T08:34:08;22.30;;;14.17;;
8247;SDS011;4164;49.844;8.830;2022-10-13T08:36:34;25.50;;;13.80;;
8247;SDS011;4164;49.844;8.830;2022-10-13T08:39:00;25.40;;;14.30;;
8247;SDS011;4164;49.844;8.830;2022-10-13T08:41:30;27.50;;;14.80;;
8247;SDS011;4164;49.844;8.830;2022-10-13T08:44:04;23.67;;;13.30;;
8247;SDS011;4164;49.844;8.830;2022-10-13T08:46:38;26.03;;;14.63;;
8247;SDS011;4164;49.844;8.830;2022-10-13T08:49:19;24.27;;;14.30;;
8247;SDS011;4164;49.844;8.830;2022-10-13T08:51:45;27.40;;;16.07;;
8247;SDS011;4164;49.844;8.830;2022-10-13T08:54:12;26.77;;;15.33;;
8247;SDS011;4164;49.844;8.830;2022-10-13T08:56:40;22.87;;;14.43;;
8247;SDS011;4164;49.844;8.830;2022-10-13T08:59:08;25.60;;;15.30;;
8247;SDS011;4164;49.844;8.830;2022-10-13T09:01:38;29.10;;;15.17;;
8247;SDS011;4164;49.844;8.830;2022-10-13T09:07:23;29.27;;;16.47;;
8247;SDS011;4164;49.844;8.830;2022-10-13T09:09:43;23.63;;;15.00;;
8247;SDS011;4164;49.844;8.830;2022-10-13T09:12:09;29.33;;;16.13;;
8247;SDS011;4164;49.844;8.830;2022-10-13T09:14:37;27.40;;;16.17;;
8247;SDS011;4164;49.844;8.830;2022-10-13T09:17:20;26.43;;;16.00;;
8247;SDS011;4164;49.844;8.830;2022-10-13T09:22:44;28.07;;;15.90;;
8247;SDS011;4164;49.844;8.830;2022-10-13T09:25:24;22.33;;;15.47;;
8247;SDS011;4164;49.844;8.830;2022-10-13T09:27:56;25.97;;;14.90;;
8247;SDS011;4164;49.844;8.830;2022-10-13T09:30:38;26.23;;;14.97;;
8247;SDS011;4164;49.844;8.830;2022-10-13T09:35:37;25.37;;;15.67;;
8247;SDS011;4164;49.844;8.830;2022-10-13T09:38:08;29.10;;;14.87;;
8247;SDS011;4164;49.844;8.830;2022-10-13T09:40:44;27.13;;;14.73;;
8247;SDS011;4164;49.844;8.830;2022-10-13T09:45:53;26.67;;;15.47;;
8247;SDS011;4164;49.844;8.830;2022-10-13T09:48:20;22.33;;;14.87;;
8247;SDS011;4164;49.844;8.830;2022-10-13T09:50:50;26.93;;;16.03;;
8247;SDS011;4164;49.844;8.830;2022-10-13T09:53:22;28.63;;;16.07;;
8247;SDS011;4164;49.844;8.830;2022-10-13T09:58:32;27.10;;;15.83;;
8247;SDS011;4164;49.844;8.830;2022-10-13T10:01:00;26.17;;;16.43;;
8247;SDS011;4164;49.844;8.830;2022-10-13T10:03:30;31.47;;;16.77;;
8247;SDS011;4164;49.844;8.830;2022-10-13T10:05:59;28.93;;;19.43;;
8247;SDS011;4164;49.844;8.830;2022-10-13T10:11:40;31.40;;;19.80;;
8247;SDS011;4164;49.844;8.830;2022-10-13T10:14:13;28.43;;;17.70;;
8247;SDS011;4164;49.844;8.830;2022-10-13T10:16:51;27.13;;;15.57;;
8247;SDS011;4164;49.844;8.830;2022-10-13T10:25:02;25.50;;;16.27;;
8247;SDS011;4164;49.844;8.830;2022-10-13T10:27:43;25.20;;;15.33;;
8247;SDS011;4164;49.844;8.830;2022-10-13T10:30:19;26.30;;;16.27;;
8247;SDS011;4164;49.844;8.830;2022-10-13T10:32:52;33.30;;;17.70;;
8247;SDS011;4164;49.844;8.830;2022-10-13T10:38:19;29.13;;;16.93;;
8247;SDS011;4164;49.844;8.830;2022-10-13T10:40:57;36.83;;;19.00;;
8247;SDS011;4164;49.844;8.830;2022-10-13T10:43:34;36.40;;;19.03;;
8247;SDS011;4164;49.844;8.830;2022-10-13T10:46:15;44.70;;;22.00;;
8247;SDS011;4164;49.844;8.830;2022-10-13T10:48:42;34.60;;;18.47;;
8247;SDS011;4164;49.844;8.830;2022-10-13T10:51:10;41.17;;;20.83;;
8247;SDS011;4164;49.844;8.830;2022-10-13T10:56:39;36.63;;;19.77;;
8247;SDS011;4164;49.844;8.830;2022-10-13T11:05:14;35.57;;;17.60;;
8247;SDS011;4164;49.844;8.830;2022-10-13T11:15:41;35.03;;;17.73;;
8247;SDS011;4164;49.844;8.830;2022-10-13T11:21:14;28.13;;;16.83;;
8247;SDS011;4164;49.844;8.830;2022-10-13T11:23:43;33.53;;;17.43;;
8247;SDS011;4164;49.844;8.830;2022-10-13T11:28:56;27.20;;;17.90;;
8247;SDS011;4164;49.844;8.830;2022-10-13T11:31:29;26.63;;;16.83;;
8247;SDS011;4164;49.844;8.830;2022-10-13T11:34:27;31.80;;;17.33;;
8247;SDS011;4164;49.844;8.830;2022-10-13T11:36:55;26.20;;;17.60;;
8247;SDS011;4164;49.844;8.830;2022-10-13T11:52:30;23.53;;;16.20;;
8247;SDS011;4164;49.844;8.830;2022-10-13T11:55:35;30.47;;;18.33;;
8247;SDS011;4164;49.844;8.830;2022-10-13T11:58:22;33.27;;;18.50;;
8247;SDS011;4164;49.844;8.830;2022-10-13T12:01:03;25.87;;;16.33;;
8247;SDS011;4164;49.844;8.830;2022-10-13T12:03:31;26.80;;;16.37;;
8247;SDS011;4164;49.844;8.830;2022-10-13T12:06:44;21.53;;;15.03;;
8247;SDS011;4164;49.844;8.830;2022-10-13T12:08:45;22.30;;;14.00;;
8247;SDS011;4164;49.844;8.830;2022-10-13T12:11:46;20.33;;;13.00;;
8247;SDS011;4164;49.844;8.830;2022-10-13T12:14:06;20.17;;;13.00;;
8247;SDS011;4164;49.844;8.830;2022-10-13T12:16:55;19.93;;;11.77;;
8247;SDS011;4164;49.844;8.830;2022-10-13T12:19:22;16.43;;;10.60;;
8247;SDS011;4164;49.844;8.830;2022-10-13T12:21:51;16.60;;;11.87;;
8247;SDS011;4164;49.844;8.830;2022-10-13T12:24:20;18.93;;;11.57;;
8247;SDS011;4164;49.844;8.830;2022-10-13T12:26:47;21.03;;;11.13;;
8247;SDS011;4164;49.844;8.830;2022-10-13T12:29:14;16.80;;;11.30;;
8247;SDS011;4164;49.844;8.830;2022-10-13T12:31:41;19.30;;;11.03;;
8247;SDS011;4164;49.844;8.830;2022-10-13T12:34:19;15.63;;;10.90;;
8247;SDS011;4164;49.844;8.830;2022-10-13T12:37:02;16.53;;;11.47;;
8247;SDS011;4164;49.844;8.830;2022-10-13T12:39:42;17.00;;;10.60;;
8247;SDS011;4164;49.844;8.830;2022-10-13T12:42:08;17.23;;;10.60;;
8247;SDS011;4164;49.844;8.830;2022-10-13T12:44:37;20.57;;;10.07;;
8247;SDS011;4164;49.844;8.830;2022-10-13T12:47:03;18.27;;;10.13;;
8247;SDS011;4164;49.844;8.830;2022-10-13T12:49:33;15.23;;;10.70;;
8247;SDS011;4164;49.844;8.830;2022-10-13T12:52:04;20.57;;;12.17;;
8247;SDS011;4164;49.844;8.830;2022-10-13T12:54:30;20.27;;;10.97;;
8247;SDS011;4164;49.844;8.830;2022-10-13T12:56:59;26.07;;;11.37;;
8247;SDS011;4164;49.844;8.830;2022-10-13T12:59:28;18.63;;;11.53;;
8247;SDS011;4164;49.844;8.830;2022-10-13T13:01:59;17.80;;;11.03;;
8247;SDS011;4164;49.844;8.830;2022-10-13T13:04:28;16.97;;;12.00;;
8247;SDS011;4164;49.844;8.830;2022-10-13T13:06:56;22.90;;;12.20;;
8247;SDS011;4164;49.844;8.830;2022-10-13T13:09:27;18.93;;;11.43;;
8247;SDS011;4164;49.844;8.830;2022-10-13T13:12:05;19.70;;;11.97;;
8247;SDS011;4164;49.844;8.830;2022-10-13T13:14:40;19.20;;;11.87;;
8247;SDS011;4164;49.844;8.830;2022-10-13T13:19:48;18.23;;;10.93;;
8247;SDS011;4164;49.844;8.830;2022-10-13T13:22:15;18.70;;;10.50;;
8247;SDS011;4164;49.844;8.830;2022-10-13T13:24:41;16.87;;;10.40;;
8247;SDS011;4164;49.844;8.830;2022-10-13T13:27:13;17.37;;;10.70;;
8247;SDS011;4164;49.844;8.830;2022-10-13T13:29:40;14.53;;;10.00;;
8247;SDS011;4164;49.844;8.830;2022-10-13T13:32:05;17.00;;;11.17;;
8247;SDS011;4164;49.844;8.830;2022-10-13T13:34:33;17.43;;;11.27;;
8247;SDS011;4164;49.844;8.830;2022-10-13T13:36:59;13.50;;;10.27;;
8247;SDS011;4164;49.844;8.830;2022-10-13T13:39:26;24.33;;;13.83;;
8247;SDS011;4164;49.844;8.830;2022-10-13T13:41:51;22.23;;;14.00;;
8247;SDS011;4164;49.844;8.830;2022-10-13T13:44:17;19.73;;;13.03;;
8247;SDS011;4164;49.844;8.830;2022-10-13T13:46:42;19.83;;;13.80;;
8247;SDS011;4164;49.844;8.830;2022-10-13T13:49:08;22.53;;;14.20;;
8247;SDS011;4164;49.844;8.830;2022-10-13T13:51:35;21.70;;;13.63;;
8247;SDS011;4164;49.844;8.830;2022-10-13T13:54:01;23.27;;;13.23;;
8247;SDS011;4164;49.844;8.830;2022-10-13T13:56:27;18.43;;;13.87;;
8247;SDS011;4164;49.844;8.830;2022-10-13T13:58:53;19.30;;;13.40;;
8247;SDS011;4164;49.844;8.830;2022-10-13T14:01:18;21.73;;;13.47;;
8247;SDS011;4164;49.844;8.830;2022-10-13T14:03:44;24.47;;;13.90;;
8247;SDS011;4164;49.844;8.830;2022-10-13T14:06:15;20.90;;;13.80;;
8247;SDS011;4164;49.844;8.830;2022-10-13T14:08:42;19.17;;;11.50;;
8247;SDS011;4164;49.844;8.830;2022-10-13T14:11:08;18.57;;;13.97;;
8247;SDS011;4164;49.844;8.830;2022-10-13T14:13:34;23.70;;;12.83;;
8247;SDS011;4164;49.844;8.830;2022-10-13T14:16:00;16.17;;;9.90;;
8247;SDS011;4164;49.844;8.830;2022-10-13T14:18:26;15.17;;;10.87;;
8247;SDS011;4164;49.844;8.830;2022-10-13T14:20:52;15.50;;;10.87;;
8247;SDS011;4164;49.844;8.830;2022-10-13T14:23:18;14.33;;;10.33;;
8247;SDS011;4164;49.844;8.830;2022-10-13T14:25:43;16.87;;;11.20;;
8247;SDS011;4164;49.844;8.830;2022-10-13T14:28:09;18.17;;;11.53;;
8247;SDS011;4164;49.844;8.830;2022-10-13T14:30:38;27.83;;;11.80;;
8247;SDS011;4164;49.844;8.830;2022-10-13T14:33:04;19.30;;;11.53;;
8247;SDS011;4164;49.844;8.830;2022-10-13T14:35:30;17.97;;;11.33;;
8247;SDS011;4164;49.844;8.830;2022-10-13T14:37:55;20.50;;;11.03;;
8247;SDS011;4164;49.844;8.830;2022-10-13T14:40:21;14.80;;;11.07;;
8247;SDS011;4164;49.844;8.830;2022-10-13T14:42:46;16.93;;;11.60;;
8247;SDS011;4164;49.844;8.830;2022-10-13T14:45:12;19.23;;;12.07;;
8247;SDS011;4164;49.844;8.830;2022-10-13T14:47:39;16.10;;;11.50;;
8247;SDS011;4164;49.844;8.830;2022-10-13T14:50:05;17.33;;;10.97;;
8247;SDS011;4164;49.844;8.830;2022-10-13T14:52:31;16.23;;;11.50;;
8247;SDS011;4164;49.844;8.830;2022-10-13T14:54:57;18.33;;;12.10;;
8247;SDS011;4164;49.844;8.830;2022-10-13T14:57:22;18.10;;;11.73;;
8247;SDS011;4164;49.844;8.830;2022-10-13T14:59:48;17.57;;;11.60;;
8247;SDS011;4164;49.844;8.830;2022-10-13T15:02:13;16.83;;;10.67;;
8247;SDS011;4164;49.844;8.830;2022-10-13T15:04:39;17.07;;;10.97;;
8247;SDS011;4164;49.844;8.830;2022-10-13T15:07:05;21.20;;;11.00;;
8247;SDS011;4164;49.844;8.830;2022-10-13T15:09:31;16.70;;;11.63;;
8247;SDS011;4164;49.844;8.830;2022-10-13T15:11:56;23.73;;;11.27;;
8247;SDS011;4164;49.844;8.830;2022-10-13T15:14:22;15.00;;;10.23;;
8247;SDS011;4164;49.844;8.830;2022-10-13T15:16:48;19.43;;;11.80;;
8247;SDS011;4164;49.844;8.830;2022-10-13T15:19:13;17.57;;;11.13;;
8247;SDS011;4164;49.844;8.830;2022-10-13T15:21:39;16.03;;;11.07;;
8247;SDS011;4164;49.844;8.830;2022-10-13T15:24:04;19.87;;;11.57;;
8247;SDS011;4164;49.844;8.830;2022-10-13T15:26:30;15.70;;;11.87;;
8247;SDS011;4164;49.844;8.830;2022-10-13T15:28:56;18.00;;;11.67;;
8247;SDS011;4164;49.844;8.830;2022-10-13T15:31:22;15.93;;;12.13;;
8247;SDS011;4164;49.844;8.830;2022-10-13T15:33:49;15.27;;;12.53;;
8247;SDS011;4164;49.844;8.830;2022-10-13T15:36:16;20.73;;;13.00;;
8247;SDS011;4164;49.844;8.830;2022-10-13T15:38:42;20.77;;;13.17;;
8247;SDS011;4164;49.844;8.830;2022-10-13T15:41:09;18.37;;;12.53;;
8247;SDS011;4164;49.844;8.830;2022-10-13T15:43:35;18.43;;;13.00;;
8247;SDS011;4164;49.844;8.830;2022-10-13T15:46:02;16.73;;;12.17;;
8247;SDS011;4164;49.844;8.830;2022-10-13T15:48:30;16.77;;;12.03;;
8247;SDS011;4164;49.844;8.830;2022-10-13T15:50:56;16.47;;;12.47;;
8247;SDS011;4164;49.844;8.830;2022-10-13T15:53:22;19.40;;;13.30;;
8247;SDS011;4164;49.844;8.830;2022-10-13T15:55:48;21.07;;;13.13;;
8247;SDS011;4164;49.844;8.830;2022-10-13T15:58:13;23.50;;;13.10;;
8247;SDS011;4164;49.844;8.830;2022-10-13T16:00:40;26.10;;;14.13;;
8247;SDS011;4164;49.844;8.830;2022-10-13T16:03:06;26.97;;;14.30;;
8247;SDS011;4164;49.844;8.830;2022-10-13T16:05:38;21.47;;;14.47;;
8247;SDS011;4164;49.844;8.830;2022-10-13T16:08:04;19.90;;;13.57;;
8247;SDS011;4164;49.844;8.830;2022-10-13T16:10:30;22.40;;;14.27;;
8247;SDS011;4164;49.844;8.830;2022-10-13T16:12:58;25.80;;;14.93;;
8247;SDS011;4164;49.844;8.830;2022-10-13T16:15:24;21.53;;;14.90;;
8247;SDS011;4164;49.844;8.830;2022-10-13T16:17:50;23.57;;;14.97;;
8247;SDS011;4164;49.844;8.830;2022-10-13T16:20:17;22.70;;;15.23;;
8247;SDS011;4164;49.844;8.830;2022-10-13T16:22:42;22.27;;;15.03;;
8247;SDS011;4164;49.844;8.830;2022-10-13T16:25:08;26.23;;;17.10;;
8247;SDS011;4164;49.844;8.830;2022-10-13T16:27:35;32.03;;;19.50;;